EGGDLPFR

Guest
Details From EGGD - Bristol Lulsgate
To LPFR - Faro
Flight Number -
Tags Generated
Created
Modified
Stats Distance 892 nm / 1,652 km
Max Altitude 0 ft / 0 m
Waypoints 5
Social Downloads 1
Likes 0
Share VATSIM

Download

Looking for another format? Having issues loading an existing format? Contact us
Advertisement - Login to hide

Notes

Generated

Route

EGGD KEREB PINOX VFA10 LPFR

ID Type Via Altitude Latitude Longitude Leg Dist Tot Dist Heading (true) Name
O EGGD APT - 0 ft / 0 m 51.38211˚ -2.73350˚ - 0 nm - -
KEREB FIX - 0 ft / 0 m 47.59139˚ -4.52472˚ 238 nm 238 nm 198° / 196° -
PINOX FIX - 0 ft / 0 m 40.29056˚ -7.10917˚ 452 nm 690 nm 195° / 193° -
VFA10 FIX - 0 ft / 0 m 37.01784˚ -7.99512˚ 200 nm 891 nm 192° / 192° -
O LPFR APT - 0 ft / 0 m 37.01729˚ -7.98609˚ 0 nm 891 nm 94° / 94° -

Altitude Profile

Advertisement - Login to hide

Weather


0- 5 10 15 20 25 30 35+ Temperature / ° C

Clouds and Precipitation
Forecast for 2017-12-15 00:00 UTC. Updated 2 hours ago

Ground ~20,000 ft ~40,000 ft Winds

EGGD

Details ICAO EGGD (BRS)
Name Bristol International
Region United Kingdom
Timezone Europe/London (UTC+0.0)
Stats Elevation 622 ft / 190 m (AMSL)
Location 51.382658° -2.718918°
Runways 1
Magnetic Variation 1.350° W

METAR

EGGD 142050Z AUTO 28010KT 9999 FEW017/// SCT025/// BKN034/// //////TCU 04/03 Q0990

Decode

TAF

TAF EGGD 141659Z 1418/1518 23010KT 9999 SCT020 BECMG 1418/1421 29012KT TEMPO 1418/1508 28020G30KT 6000 SHRA BKN008 PROB30 TEMPO 1418/1508 2000 +SHRAGS BKN003 BECMG 1507/1510 34010KT

Decode

Departure Runways

ID Width Length Bearing (true) Bearing (mag) Surface Threshold Offset Overrun Length
09 148 ft / 45 m 6,655 ft / 2,029 m 86.42° 87.77° Asphalt 0 ft / 0 m 0 ft / 0 m
27 148 ft / 45 m 6,655 ft / 2,029 m 266.44° 267.79° Asphalt 499 ft / 152 m 0 ft / 0 m

LPFR

Details ICAO LPFR (FAO)
Name Faro
Region Portugal
Timezone Europe/Lisbon (UTC+0.0)
Stats Elevation 24 ft / 7 m (AMSL)
Location 37.015336° -7.972327°
Runways 1
Magnetic Variation 1.936° W

METAR

LPFR 142100Z 29007KT 9999 FEW020 SCT045 14/13 Q1023

Decode

TAF

TAF LPFR 141700Z 1418/1518 29008KT 9999 FEW015 BKN030 TEMPO 1418/1509 BKN015 PROB30 TEMPO 1418/1509 3000 DZ BR BKN008 BECMG 1509/1511 SCT018 SCT035

Decode

Destination Runways

ID Width Length Bearing (true) Bearing (mag) Surface Threshold Offset Overrun Length
10 148 ft / 45 m 8,148 ft / 2,484 m 100.08° 102.02° Asphalt 148 ft / 45 m 0 ft / 0 m
28 148 ft / 45 m 8,148 ft / 2,484 m 280.10° 282.04° Asphalt 148 ft / 45 m 0 ft / 0 m

Approach Navaids

Runway Type Ident Frequency Range Bearing (true) Bearing (mag) Slope Elevation
28 Localiser IIF 109.50 MHz 18 nm / 33 km 280.16° 282.10° - 24 ft / 7 m (AMSL)
28 Glidescope IIF 109.50 MHz 10 nm / 19 km 280.09° 282.02° 3.00° 24 ft / 7 m (AMSL)
28 DME IIF 109.50 MHz 18 nm / 33 km - - - 24 ft / 7 m (AMSL)

Popular Alternatives